Terminal Aerodrome Forecast
Issued by NWS

Home | Current Version | Previous Version | Graphics & Text | Print | Product List | Glossary On
Versions: 1 2 3 4 5 6 7 8 9 10 11 12 13 14 15 16 17 18 19
062
FTUS41 KCLE 040347 AAA
TAFFDY
TAF AMD
KFDY 040347Z 0404/0424 25014G22KT P6SM OVC015
     FM041700 27012KT P6SM BKN035
     FM042300 28008KT P6SM SKC=

USA.gov is the U.S. government's official web portal to all federal, state and local government web resources and services.